Flight Track Log - Related Links

Times and Time Zones

All times are in EDT time to prevent confusion due to time zone crossing. See the JA-738J flight status page for this flight to view local times or setup timezone preferences in your user account.

Time Position Orientation Groundspeed Altitude Reporting Facility
EDT Latitude Longitude Course Direction KTS MPH feet Rate Location/Type
Sun 12:04:12 AM 35.7780 140.3660 329° Northwest 196 226 900  Level FlightAware ADS-B
Sun 12:04:22 AM 35.7860 140.3600 329° Northwest 196 226 1,500 2,667 Climbing FlightAware ADS-B
Sun 12:04:57 AM 35.8130 140.3400 329° Northwest 199 229 2,900 1,920 Climbing FlightAware ADS-B
Sun 12:05:37 AM 35.8470 140.3160 330° Northwest 222 255 3,900 1,385 Climbing FlightAware ADS-B
Sun 12:06:02 AM 35.8700 140.2990 329° Northwest 241 277 4,400 1,389 Climbing FlightAware ADS-B
Sun 12:08:00 AM 36.0889 140.1500 331° Northwest  Level Estimated
Sun 12:09:00 AM 36.2002 140.0739 331° Northwest  Level Estimated
Sun 12:10:00 AM 36.3114 139.9976 331° Northwest  Level Estimated
Sun 12:11:00 AM 36.4225 139.9211 331° Northwest  Level Estimated
Sun 12:12:00 AM 36.5336 139.8443 331° Northwest  Level Estimated
Sun 12:13:00 AM 36.6447 139.7674 331° Northwest  Level Estimated
Sun 12:13:32 AM 36.3360 139.7760 331° Northwest 359 413 14,900  Level FlightAware ADS-B
Sun 12:14:12 AM 36.3830 139.7130 313° West 373 429 16,100 1,680 Climbing FlightAware ADS-B
Sun 12:14:47 AM 36.4360 139.6810 334° Northwest 409 471 17,000 1,933 Climbing FlightAware ADS-B
Sun 12:15:42 AM 36.5530 139.6400 344° North 433 498 19,000 2,211 Climbing FlightAware ADS-B
Sun 12:16:22 AM 36.6250 139.6140 344° North 420 483 20,500 2,000 Climbing FlightAware ADS-B
Sun 12:16:57 AM 36.6870 139.5910 343° North 432 497 21,500 1,412 Climbing FlightAware ADS-B
Sun 12:17:47 AM 36.7850 139.5540 343° North 450 518 22,500 1,000 Climbing FlightAware ADS-B
Sun 12:18:27 AM 36.8780 139.5200 344° North 467 537 23,000 353 Climbing FlightAware ADS-B
Sun 12:19:12 AM 36.9680 139.4870 344° North 466 536 23,000  Level FlightAware ADS-B
Sun 12:19:52 AM 37.0530 139.4550 343° North 471 542 23,000  Level FlightAware ADS-B
Sun 12:20:32 AM 37.1360 139.4250 344° North 471 542 23,000 918 Level FlightAware ADS-B
Sun 12:21:17 AM 37.2300 139.3810 340° North 456 525 24,300 1,694 Climbing FlightAware ADS-B
Sun 12:21:57 AM 37.3020 139.3330 332° Northwest 451 519 25,400 1,624 Climbing FlightAware ADS-B
Sun 12:22:42 AM 37.3820 139.2720 329° Northwest 455 524 26,600 1,425 Climbing FlightAware ADS-B
Sun 12:23:17 AM 37.4450 139.2240 329° Northwest 456 525 27,300 1,040 Climbing FlightAware ADS-B
Sun 12:23:57 AM 37.5200 139.1670 329° Northwest 468 539 27,900 1,067 Climbing FlightAware ADS-B
Sun 12:24:47 AM 37.6230 139.0890 329° Northwest 486 559 28,900 1,200 Climbing FlightAware ADS-B
Sun 12:25:27 AM 37.6990 139.0310 329° Northwest 492 566 29,700 776 Climbing FlightAware ADS-B
Sun 12:26:12 AM 37.7870 138.9640 329° Northwest 487 560 30,000 353 Climbing FlightAware ADS-B
Sun 12:26:52 AM 37.8620 138.9070 329° Northwest 490 564 30,200 565 Climbing FlightAware ADS-B
Sun 12:27:37 AM 37.9520 138.8380 329° Northwest 494 568 30,800 675 Climbing FlightAware ADS-B
Sun 12:29:32 AM 38.1770 138.6640 329° Northwest 486 559 32,000 369 Climbing FlightAware ADS-B
Sun 12:30:22 AM 38.2620 138.5990 329° Northwest 32,000  Level FlightAware ADS-B
Sun 12:30:52 AM 38.3210 138.5520 328° Northwest 489 563 32,000  Level FlightAware ADS-B
Sun 12:32:02 AM 38.4630 138.4420 329° Northwest 495 570 32,000  Level FlightAware ADS-B
Sun 12:32:42 AM 38.5370 138.3840 328° Northwest 495 570 32,000  Level FlightAware ADS-B
Sun 12:33:22 AM 38.6160 138.3220 328° Northwest 494 568 32,000  Level FlightAware ADS-B
Sun 12:34:07 AM 38.7070 138.2510 329° Northwest 498 573 32,000  Level FlightAware ADS-B
Sun 12:34:47 AM 38.7810 138.1920 328° Northwest 498 573 32,000  Level FlightAware ADS-B
Sun 12:35:32 AM 38.8790 138.1300 334° Northwest 516 594 32,000  Level FlightAware ADS-B
Sun 12:36:07 AM 38.9580 138.1140 351° North 540 621 32,000  Level FlightAware ADS-B
Sun 12:36:52 AM 39.0770 138.1160 North 544 626 32,000  Level FlightAware ADS-B
Sun 12:37:37 AM 39.1890 138.1200 North 534 615 32,000  Level FlightAware ADS-B
Sun 12:38:07 AM 39.2660 138.1220 North 533 613 32,000  Level FlightAware ADS-B
Sun 12:39:02 AM 39.4020 138.1260 North 530 610 32,000  Level FlightAware ADS-B
Sun 12:40:12 AM 39.5760 138.1310 North 529 609 32,000  Level FlightAware ADS-B
Sun 12:41:17 AM 39.7370 138.1350 North 529 609 32,000  Level FlightAware ADS-B
Sun 12:42:32 AM 39.9150 138.1400 North 529 609 32,000  Level FlightAware ADS-B
Sun 12:43:52 AM 40.1230 138.1460 North 530 610 32,000  Level FlightAware ADS-B
Sun 12:44:37 AM 40.2370 138.1490 North 530 610 32,000  Level FlightAware ADS-B
Sun 12:45:17 AM 40.3380 138.1520 North 531 611 32,000  Level FlightAware ADS-B
Sun 12:45:57 AM 40.4370 138.1550 North 529 609 32,000  Level FlightAware ADS-B
Sun 12:46:42 AM 40.5420 138.1570 North 528 608 32,000  Level FlightAware ADS-B
Sun 12:47:22 AM 40.6470 138.1600 North 528 608 32,000  Level FlightAware ADS-B
Sun 12:48:02 AM 40.7460 138.1630 North 529 609 32,000  Level FlightAware ADS-B
Sun 12:48:47 AM 40.8580 138.1660 North 528 608 32,000  Level FlightAware ADS-B
Sun 12:49:27 AM 40.9590 138.1690 North 527 606 32,000  Level FlightAware ADS-B
Sun 12:50:12 AM 41.0690 138.1720 North 528 608 32,000  Level FlightAware ADS-B
Sun 12:50:57 AM 41.1740 138.1750 North 527 606 32,000  Level FlightAware ADS-B
Sun 12:51:37 AM 41.2730 138.1780 North 534 615 32,000  Level FlightAware ADS-B
Sun 12:52:17 AM 41.3720 138.1810 North 533 613 32,000  Level FlightAware ADS-B
Sun 12:52:57 AM 41.4690 138.1830 North 532 612 32,000  Level FlightAware ADS-B
Sun 12:54:52 AM 41.7500 138.1910 North 534 615 32,000  Level FlightAware ADS-B
Sun 12:55:32 AM 41.8560 138.1950 North 527 606 32,000  Level FlightAware ADS-B
Sun 12:56:17 AM 41.9710 138.1980 North 534 615 32,000  Level FlightAware ADS-B
Sun 12:56:57 AM 42.0640 138.2010 North 533 613 32,000  Level FlightAware ADS-B
Sun 12:57:32 AM 42.1560 138.2030 North 534 615 32,000  Level FlightAware ADS-B
Sun 12:58:12 AM 42.2540 138.2060 North 527 606 32,000  Level FlightAware ADS-B
Sun 12:59:02 AM 42.3650 138.2090 North 534 615 32,000  Level FlightAware ADS-B
Sun 12:59:47 AM 42.4890 138.2130 North 527 606 32,000  Level FlightAware ADS-B
Sun 01:00:47 AM 42.6220 138.2170 North 527 606 32,000  Level FlightAware ADS-B
Sun 01:01:32 AM 42.7210 138.2190 North 527 606 32,000  Level FlightAware ADS-B
Sun 01:02:22 AM 42.8250 138.2220 North 527 606 32,000  Level FlightAware ADS-B
Sun 01:03:02 AM 42.9080 138.2240 North 527 606 32,000  Level FlightAware ADS-B
Sun 01:03:42 AM 42.9900 138.2260 North 527 606 32,000  Level FlightAware ADS-B
Sun 01:04:22 AM 43.0730 138.2280 North 527 606 32,000  Level FlightAware ADS-B
Sun 01:05:02 AM 43.1560 138.2300 North 527 606 32,000  Level FlightAware ADS-B
Sun 01:05:52 AM 43.2600 138.2320 North 527 606 32,000  Level FlightAware ADS-B
Sun 01:06:32 AM 43.3430 138.2340 North 527 606 32,000  Level FlightAware ADS-B
Sun 01:07:12 AM 43.4260 138.2360 North 527 606 32,000  Level FlightAware ADS-B
Sun 01:07:52 AM 43.5090 138.2380 North 527 606 32,000  Level FlightAware ADS-B
Sun 01:08:32 AM 43.5910 138.2400 North 527 606 32,000  Level FlightAware ADS-B
Sun 01:09:22 AM 43.6950 138.2430 North 527 606 32,000  Level FlightAware ADS-B
Sun 01:10:02 AM 43.7780 138.2450 North 527 606 32,000  Level FlightAware ADS-B
Sun 01:10:42 AM 43.8610 138.2470 North 527 606 32,000  Level FlightAware ADS-B
Sun 01:13:00 AM 44.1129 138.0397 329° Northwest  Level Estimated
Sun 01:14:00 AM 44.2223 137.9490 329° Northwest  Level Estimated
Sun 01:15:00 AM 44.3316 137.8579 329° Northwest  Level Estimated
Sun 01:16:00 AM 44.4408 137.7665 329° Northwest  Level Estimated
Sun 01:17:00 AM 44.5500 137.6748 329° Northwest  Level Estimated
Sun 01:18:00 AM 44.6591 137.5828 329° Northwest  Level Estimated
Sun 01:19:00 AM 44.7682 137.4904 329° Northwest  Level Estimated
Sun 01:20:00 AM 44.8771 137.3976 329° Northwest  Level Estimated
Sun 01:21:00 AM 44.9862 137.3043 329° Northwest  Level Estimated
Sun 01:22:00 AM 45.0951 137.2107 329° Northwest  Level Estimated
Sun 01:23:00 AM 45.2040 137.1168 329° Northwest  Level Estimated
Sun 01:24:00 AM 45.3128 137.0224 329° Northwest  Level Estimated
Sun 01:25:00 AM 45.4216 136.9277 329° Northwest  Level Estimated
Sun 01:26:00 AM 45.5302 136.8327 329° Northwest  Level Estimated
Sun 01:27:00 AM 45.6388 136.7373 328° Northwest  Level Estimated
Sun 01:27:17 AM 46.4620 138.0720 328° Northwest 502 578 32,000  Level FlightAware ADS-B
Sun 01:27:52 AM 46.5450 138.0530 351° North 495 570 32,000  Level FlightAware ADS-B
Sun 01:28:32 AM 46.6250 138.0170 343° North 491 565 32,000  Level FlightAware ADS-B
Sun 01:29:17 AM 46.7300 137.9660 342° North 490 564 32,000  Level FlightAware ADS-B
Sun 01:30:07 AM 46.8370 137.9140 342° North 493 567 32,000  Level FlightAware ADS-B
Sun 01:30:42 AM 46.8950 137.8860 342° North 490 564 32,000  Level FlightAware ADS-B
Sun 01:31:32 AM 47.0200 137.8240 341° North 485 558 32,000  Level FlightAware ADS-B
Sun 01:32:12 AM 47.0920 137.7890 342° North 483 556 32,000  Level FlightAware ADS-B
Sun 01:32:47 AM 47.1690 137.7510 341° North 471 542 32,000  Level FlightAware ADS-B
Sun 01:33:27 AM 47.2480 137.7120 341° North 473 544 32,000  Level FlightAware ADS-B
Sun 01:34:12 AM 47.3390 137.6660 341° North 481 554 32,000  Level FlightAware ADS-B
Sun 01:35:12 AM 47.4710 137.6000 341° North 478 550 32,000  Level FlightAware ADS-B
Sun 01:36:02 AM 47.5690 137.5510 341° North 469 540 32,000  Level FlightAware ADS-B
Sun 01:36:52 AM 47.6770 137.4960 341° North 468 539 32,000  Level FlightAware ADS-B
Sun 01:37:27 AM 47.7550 137.4570 341° North 469 540 32,000  Level FlightAware ADS-B
Sun 01:38:17 AM 47.8530 137.4070 341° North 473 544 32,000  Level FlightAware ADS-B
Sun 01:38:52 AM 47.9210 137.3730 341° North 473 544 32,000  Level FlightAware ADS-B
Sun 01:39:42 AM 48.0330 137.3160 341° North 481 554 32,000  Level FlightAware ADS-B
Sun 01:40:37 AM 48.1410 137.2600 341° North 481 554 32,000  Level FlightAware ADS-B
Sun 01:41:12 AM 48.2160 137.2210 341° North 483 556 32,000  Level FlightAware ADS-B
Sun 01:42:12 AM 48.3400 137.1570 341° North 479 551 32,000  Level FlightAware ADS-B
Sun 01:42:52 AM 48.4300 137.1110 341° North 478 550 32,000  Level FlightAware ADS-B
Sun 01:43:37 AM 48.5160 137.0660 341° North 476 548 32,000  Level FlightAware ADS-B
Sun 01:44:22 AM 48.6070 137.0180 341° North 477 549 32,000  Level FlightAware ADS-B
Sun 01:45:17 AM 48.7270 136.9550 341° North 474 545 32,000  Level FlightAware ADS-B
Sun 01:46:12 AM 48.8300 136.9010 341° North 473 544 32,000  Level FlightAware ADS-B
Sun 01:46:52 AM 48.9240 136.8510 341° North 473 544 32,000  Level FlightAware ADS-B
Sun 01:47:37 AM 49.0150 136.8020 341° North 469 540 32,000  Level FlightAware ADS-B
Sun 01:48:17 AM 49.1010 136.7560 341° North 469 540 32,000  Level FlightAware ADS-B
Sun 01:49:27 AM 49.2420 136.6780 340° North 469 540 32,000  Level FlightAware ADS-B
Sun 01:50:02 AM 49.3190 136.6360 340° North 469 540 32,000  Level FlightAware ADS-B
Sun 01:50:47 AM 49.4060 136.5890 341° North 468 539 32,000  Level FlightAware ADS-B
Sun 01:51:32 AM 49.4870 136.5290 334° Northwest 466 536 32,000  Level FlightAware ADS-B
Sun 01:52:17 AM 49.5660 136.4600 330° Northwest 463 533 32,000  Level FlightAware ADS-B
Sun 01:52:57 AM 49.6530 136.3790 329° Northwest 465 535 32,000  Level FlightAware ADS-B
Sun 01:53:37 AM 49.7220 136.3110 328° Northwest 467 537 32,000  Level FlightAware ADS-B
Sun 01:54:22 AM 49.8100 136.2280 329° Northwest 469 540 32,000  Level FlightAware ADS-B
Sun 01:55:02 AM 49.8760 136.1640 328° Northwest 468 539 32,000  Level FlightAware ADS-B
Sun 01:56:02 AM 49.9880 136.0550 328° Northwest 470 541 32,000  Level FlightAware ADS-B
Sun 01:56:37 AM 50.0600 135.9860 328° Northwest 471 542 32,000  Level FlightAware ADS-B
Sun 01:57:22 AM 50.1390 135.9090 328° Northwest 466 536 32,000  Level FlightAware ADS-B
Sun 01:58:32 AM 50.2640 135.7860 328° Northwest 463 533 32,000  Level FlightAware ADS-B
Sun 01:59:17 AM 50.3400 135.7120 328° Northwest 461 531 32,000  Level FlightAware ADS-B
Sun 01:59:57 AM 50.4170 135.6350 328° Northwest 457 526 32,000  Level FlightAware ADS-B
Sun 02:00:37 AM 50.4810 135.5720 328° Northwest 455 524 32,000  Level FlightAware ADS-B
Sun 02:01:22 AM 50.5580 135.4950 328° Northwest 453 521 32,000  Level FlightAware ADS-B
Sun 02:02:02 AM 50.6250 135.4280 328° Northwest 453 521 32,000  Level FlightAware ADS-B
Sun 02:02:47 AM 50.7150 135.3380 328° Northwest 453 521 32,000  Level FlightAware ADS-B
Sun 02:03:22 AM 50.7830 135.2700 328° Northwest 450 518 32,000  Level FlightAware ADS-B
Sun 02:04:12 AM 50.8640 135.1870 327° Northwest 448 516 32,000  Level FlightAware ADS-B
Sun 02:04:52 AM 50.9300 135.1220 328° Northwest 445 512 32,000  Level FlightAware ADS-B
Sun 02:05:32 AM 51.0310 135.0220 328° Northwest 443 510 32,000  Level FlightAware ADS-B
Sun 02:06:17 AM 51.1040 134.9510 329° Northwest 451 519 32,000  Level FlightAware ADS-B
Sun 02:06:57 AM 51.1540 134.9000 327° Northwest 455 524 32,000  Level FlightAware ADS-B
Sun 02:07:32 AM 51.2220 134.8320 328° Northwest 454 522 32,000  Level FlightAware ADS-B
Sun 02:08:22 AM 51.3000 134.7550 328° Northwest 445 512 32,000  Level FlightAware ADS-B
Sun 02:09:02 AM 51.3640 134.6900 328° Northwest 444 511 32,000  Level FlightAware ADS-B
Sun 02:09:47 AM 51.4390 134.6150 328° Northwest 443 510 32,000  Level FlightAware ADS-B
Sun 02:10:22 AM 51.5050 134.5480 328° Northwest 443 510 32,000  Level FlightAware ADS-B
Sun 02:11:07 AM 51.6250 134.4280 328° Northwest 443 510 32,000  Level FlightAware ADS-B
Sun 02:11:52 AM 51.6530 134.3990 327° Northwest 443 510 32,000  Level FlightAware ADS-B
Sun 02:12:32 AM 51.7290 134.3220 328° Northwest 440 506 32,000  Level FlightAware ADS-B
Sun 02:13:22 AM 51.8000 134.2480 327° Northwest 440 506 32,000  Level FlightAware ADS-B
Sun 02:14:12 AM 51.8720 134.1720 327° Northwest 440 506 32,000  Level FlightAware ADS-B
Sun 02:14:52 AM 51.9300 134.1110 327° Northwest 440 506 32,000  Level FlightAware ADS-B
Sun 02:15:32 AM 51.9880 134.0500 327° Northwest 440 506 32,000  Level FlightAware ADS-B
Sun 02:16:12 AM 52.0460 133.9880 327° Northwest 440 506 32,000  Level FlightAware ADS-B
Sun 02:16:52 AM 52.1050 133.9270 328° Northwest 440 506 32,000  Level FlightAware ADS-B
Sun 02:17:42 AM 52.1770 133.8500 327° Northwest 440 506 32,000  Level FlightAware ADS-B
Sun 02:18:22 AM 52.2350 133.7890 327° Northwest 440 506 32,000  Level FlightAware ADS-B
Sun 02:19:02 AM 52.2930 133.7270 327° Northwest 440 506 32,000  Level FlightAware ADS-B
Sun 02:19:42 AM 52.3510 133.6650 327° Northwest 440 506 32,000  Level FlightAware ADS-B
Sun 02:20:22 AM 52.4090 133.6040 327° Northwest 440 506 32,000  Level FlightAware ADS-B
Sun 02:21:12 AM 52.4820 133.5260 327° Northwest 440 506 32,000  Level FlightAware ADS-B
Sun 02:21:52 AM 52.5400 133.4640 327° Northwest 440 506 32,000  Level FlightAware ADS-B
Sun 02:22:32 AM 52.5980 133.4020 327° Northwest 440 506 32,000 Level FlightAware ADS-B
Sun 02:25:00 AM 52.8553 133.1049 325° Northwest  Level Estimated
Sun 02:26:00 AM 52.9594 132.9835 325° Northwest  Level Estimated
Sun 02:27:00 AM 53.0634 132.8615 325° Northwest  Level Estimated
Sun 02:28:00 AM 53.1672 132.7388 325° Northwest  Level Estimated
Sun 02:29:00 AM 53.2709 132.6156 325° Northwest  Level Estimated
Sun 02:30:00 AM 53.3745 132.4918 325° Northwest  Level Estimated
Sun 02:31:00 AM 53.4780 132.3674 324° Northwest  Level Estimated
Sun 02:32:00 AM 53.5813 132.2424 324° Northwest  Level Estimated
Sun 02:33:00 AM 53.6845 132.1167 324° Northwest  Level Estimated
Sun 02:34:00 AM 53.7876 131.9905 324° Northwest  Level Estimated
Sun 02:35:00 AM 53.8905 131.8636 324° Northwest  Level Estimated
Sun 02:36:00 AM 53.9933 131.7361 324° Northwest  Level Estimated
Sun 02:37:00 AM 54.0960 131.6080 324° Northwest  Level Estimated
Sun 02:38:00 AM 54.1985 131.4792 324° Northwest  Level Estimated
Sun 02:39:00 AM 54.3009 131.3498 324° Northwest  Level Estimated
Sun 02:40:00 AM 54.4031 131.2197 324° Northwest  Level Estimated
Sun 02:41:00 AM 54.5052 131.0890 323° Northwest  Level Estimated
Sun 02:42:00 AM 54.6072 130.9577 323° Northwest  Level Estimated
Sun 02:43:00 AM 54.7090 130.8257 323° Northwest  Level Estimated
Sun 02:44:00 AM 54.8107 130.6930 323° Northwest  Level Estimated
Sun 02:45:00 AM 54.9123 130.5596 323° Northwest  Level Estimated
Sun 02:46:00 AM 55.0137 130.4256 323° Northwest  Level Estimated
Sun 02:47:00 AM 55.1149 130.2909 323° Northwest  Level Estimated
Sun 02:48:00 AM 55.2160 130.1555 323° Northwest  Level Estimated
Sun 02:49:00 AM 55.3169 130.0195 323° Northwest  Level Estimated
Sun 02:50:00 AM 55.4177 129.8827 322° Northwest  Level Estimated
Sun 02:51:00 AM 55.5184 129.7452 322° Northwest  Level Estimated
Sun 02:52:00 AM 55.6188 129.6070 322° Northwest  Level Estimated
Sun 02:53:00 AM 55.7192 129.4682 322° Northwest  Level Estimated
Sun 02:54:00 AM 55.8193 129.3286 322° Northwest  Level Estimated
Sun 02:55:00 AM 55.9193 129.1882 322° Northwest  Level Estimated
Sun 02:56:00 AM 56.0192 129.0472 322° Northwest  Level Estimated
Sun 02:57:00 AM 56.1189 128.9054 322° Northwest  Level Estimated
Sun 02:58:00 AM 56.2184 128.7629 321° Northwest  Level Estimated
Sun 02:59:00 AM 56.3178 128.6197 321° Northwest  Level Estimated
Sun 03:00:00 AM 56.4170 128.4757 321° Northwest  Level Estimated
Sun 03:01:00 AM 56.5160 128.3309 321° Northwest  Level Estimated
Sun 03:02:00 AM 56.6150 128.1852 321° Northwest  Level Estimated
Sun 03:03:00 AM 56.7138 128.0387 321° Northwest  Level Estimated
Sun 03:04:00 AM 56.8125 127.8914 321° Northwest  Level Estimated
Sun 03:05:00 AM 56.9110 127.7434 321° Northwest  Level Estimated
Sun 03:06:00 AM 57.0093 127.5946 321° Northwest  Level Estimated
Sun 03:07:00 AM 57.1074 127.4450 320° Northwest  Level Estimated
Sun 03:08:00 AM 57.2054 127.2946 320° Northwest  Level Estimated
Sun 03:09:00 AM 57.3032 127.1433 320° Northwest  Level Estimated
Sun 03:10:00 AM 57.4007 126.9913 320° Northwest  Level Estimated
Sun 03:11:00 AM 57.4981 126.8385 320° Northwest  Level Estimated
Sun 03:12:00 AM 57.5952 126.6851 320° Northwest  Level Estimated
Sun 03:13:00 AM 57.6921 126.5309 320° Northwest  Level Estimated
Sun 03:14:00 AM 57.7888 126.3758 320° Northwest  Level Estimated
Sun 03:15:00 AM 57.8853 126.2199 319° Northwest  Level Estimated
Sun 03:16:00 AM 57.9817 126.0632 319° Northwest  Level Estimated
Sun 03:17:00 AM 58.0778 125.9057 319° Northwest  Level Estimated
Sun 03:18:00 AM 58.1737 125.7472 319° Northwest  Level Estimated
Sun 03:19:00 AM 58.2694 125.5880 319° Northwest  Level Estimated
Sun 03:20:00 AM 58.3650 125.4278 319° Northwest  Level Estimated
Sun 03:21:00 AM 58.4603 125.2668 319° Northwest  Level Estimated
Sun 03:22:00 AM 58.5554 125.1049 318° Northwest  Level Estimated
Sun 03:23:00 AM 58.6503 124.9422 318° Northwest  Level Estimated
Sun 03:24:00 AM 58.7451 124.7785 318° Northwest  Level Estimated
Sun 03:25:00 AM 58.8396 124.6140 318° Northwest  Level Estimated
Sun 03:26:00 AM 58.9339 124.4486 318° Northwest  Level Estimated
Sun 03:27:00 AM 59.0280 124.2822 318° Northwest  Level Estimated
Sun 03:28:00 AM 59.1218 124.1150 318° Northwest  Level Estimated
Sun 03:29:00 AM 59.2155 123.9468 317° Northwest  Level Estimated
Sun 03:30:00 AM 59.3089 123.7777 317° Northwest  Level Estimated
Sun 03:31:00 AM 59.4021 123.6077 317° Northwest  Level Estimated
Sun 03:32:00 AM 59.4952 123.4367 317° Northwest  Level Estimated
Sun 03:33:00 AM 59.5879 123.2648 317° Northwest  Level Estimated
Sun 03:34:00 AM 59.6805 123.0919 317° Northwest  Level Estimated
Sun 03:35:00 AM 59.7728 122.9181 317° Northwest  Level Estimated
Sun 03:36:00 AM 59.8649 122.7434 316° Northwest  Level Estimated
Sun 03:37:00 AM 59.9567 122.5676 316° Northwest  Level Estimated
Sun 03:38:00 AM 60.0483 122.3909 316° Northwest  Level Estimated
Sun 03:39:00 AM 60.1397 122.2132 316° Northwest  Level Estimated
Sun 03:40:00 AM 60.2309 122.0345 316° Northwest  Level Estimated
Sun 03:41:00 AM 60.3218 121.8548 316° Northwest  Level Estimated
Sun 03:42:00 AM 60.4124 121.6741 315° West  Level Estimated
Sun 03:43:00 AM 60.5028 121.4924 315° West  Level Estimated
Sun 03:44:00 AM 60.5930 121.3097 315° West  Level Estimated
Sun 03:45:00 AM 60.6829 121.1260 315° West  Level Estimated
Sun 03:46:00 AM 60.7726 120.9412 315° West  Level Estimated
Sun 03:47:00 AM 60.8620 120.7554 315° West  Level Estimated
Sun 03:48:00 AM 60.9511 120.5686 315° West  Level Estimated
Sun 03:49:00 AM 61.0400 120.3807 314° West  Level Estimated
Sun 03:50:00 AM 61.1286 120.1917 314° West  Level Estimated
Sun 03:51:00 AM 61.2170 120.0017 314° West  Level Estimated
Sun 03:52:00 AM 61.3050 119.8107 314° West  Level Estimated
Sun 03:53:00 AM 61.3929 119.6185 314° West  Level Estimated
Sun 03:54:00 AM 61.4804 119.4253 314° West  Level Estimated
Sun 03:55:00 AM 61.5677 119.2310 313° West  Level Estimated
Sun 03:56:00 AM 61.6547 119.0356 313° West  Level Estimated
Sun 03:57:00 AM 61.7414 118.8391 313° West  Level Estimated
Sun 03:58:00 AM 61.8278 118.6414 313° West  Level Estimated
Sun 03:59:00 AM 61.9140 118.4427 313° West  Level Estimated
Sun 04:00:00 AM 61.9999 118.2428 313° West  Level Estimated
Sun 04:01:00 AM 62.0854 118.0419 312° West  Level Estimated
Sun 04:02:00 AM 62.1707 117.8397 312° West  Level Estimated
Sun 04:03:00 AM 62.2557 117.6365 312° West  Level Estimated
Sun 04:04:00 AM 62.3404 117.4321 312° West  Level Estimated
Sun 04:05:00 AM 62.4247 117.2265 312° West  Level Estimated
Sun 04:06:00 AM 62.5088 117.0198 311° West  Level Estimated
Sun 04:07:00 AM 62.5926 116.8119 311° West  Level Estimated
Sun 04:08:00 AM 62.6760 116.6028 311° West  Level Estimated
Sun 04:09:00 AM 62.7592 116.3926 311° West  Level Estimated
Sun 04:10:00 AM 62.8420 116.1812 311° West  Level Estimated
Sun 04:11:00 AM 62.9245 115.9686 311° West  Level Estimated
Sun 04:12:00 AM 63.0067 115.7547 310° West  Level Estimated
Sun 04:13:00 AM 63.0886 115.5397 310° West  Level Estimated
Sun 04:14:00 AM 63.1701 115.3235 310° West  Level Estimated
Sun 04:15:00 AM 63.2513 115.1060 310° West  Level Estimated
Sun 04:16:00 AM 63.3322 114.8873 310° West  Level Estimated
Sun 04:17:00 AM 63.4127 114.6674 309° West  Level Estimated
Sun 04:18:00 AM 63.4929 114.4463 309° West  Level Estimated
Sun 04:19:00 AM 63.5728 114.2239 309° West  Level Estimated
Sun 04:20:00 AM 63.6523 114.0003 309° West  Level Estimated
Sun 04:21:00 AM 63.7314 113.7754 309° West  Level Estimated
Sun 04:22:00 AM 63.8103 113.5492 308° West  Level Estimated
Sun 04:23:00 AM 63.8887 113.3218 308° West  Level Estimated
Sun 04:24:00 AM 63.9667 113.0935 308° West  Level Estimated
Sun 04:25:00 AM 64.0443 112.8639 308° West  Level Estimated
Sun 04:26:00 AM 64.1215 112.6330 308° West  Level Estimated
Sun 04:27:00 AM 64.1984 112.4008 307° West  Level Estimated
Sun 04:28:00 AM 64.2749 112.1674 307° West  Level Estimated
Sun 04:29:00 AM 64.3511 111.9326 307° West  Level Estimated
Sun 04:30:00 AM 64.4268 111.6965 307° West  Level Estimated
Sun 04:31:00 AM 64.5022 111.4592 306° West  Level Estimated
Sun 04:32:00 AM 64.5772 111.2205 306° West  Level Estimated
Sun 04:33:00 AM 64.6518 110.9805 306° West  Level Estimated
Sun 04:34:00 AM 64.7260 110.7392 306° West  Level Estimated
Sun 04:35:00 AM 64.7999 110.4966 306° West  Level Estimated
Sun 04:36:00 AM 64.8733 110.2526 305° West  Level Estimated
Sun 04:37:00 AM 64.9463 110.0073 305° West  Level Estimated
Sun 04:38:00 AM 65.0189 109.7607 305° West  Level Estimated
Sun 04:39:00 AM 65.0911 109.5127 305° West  Level Estimated
Sun 04:40:00 AM 65.1629 109.2634 305° West  Level Estimated
Sun 04:41:00 AM 65.2343 109.0127 304° West  Level Estimated
Sun 04:42:00 AM 65.3053 108.7607 304° West  Level Estimated
Sun 04:43:00 AM 65.3758 108.5073 304° West  Level Estimated
Sun 04:44:00 AM 65.4459 108.2526 304° West  Level Estimated
Sun 04:45:00 AM 65.5156 107.9965 303° West  Level Estimated
Sun 04:46:00 AM 65.5848 107.7390 303° West  Level Estimated
Sun 04:47:00 AM 65.6537 107.4802 303° West  Level Estimated
Sun 04:48:00 AM 65.7220 107.2200 303° West  Level Estimated
Sun 04:49:00 AM 65.7899 106.9584 302° West  Level Estimated
Sun 04:50:00 AM 65.8574 106.6954 302° West  Level Estimated
Sun 04:51:00 AM 65.9244 106.4311 302° West  Level Estimated
Sun 04:52:00 AM 65.9910 106.1653 302° West  Level Estimated
Sun 04:53:00 AM 66.0571 105.8982 301° West  Level Estimated
Sun 04:54:00 AM 66.1227 105.6297 301° West  Level Estimated
Sun 04:55:00 AM 66.1879 105.3598 301° West  Level Estimated
Sun 04:56:00 AM 66.2526 105.0885 301° West  Level Estimated
Sun 04:57:00 AM 66.3168 104.8159 300° West  Level Estimated
Sun 04:58:00 AM 66.3806 104.5418 300° West  Level Estimated
Sun 04:59:00 AM 66.4438 104.2663 300° West  Level Estimated
Sun 05:00:00 AM 66.5066 103.9895 300° West  Level Estimated
Sun 05:01:00 AM 66.5689 103.7113 299° West  Level Estimated
Sun 05:02:00 AM 66.6307 103.4316 299° West  Level Estimated
Sun 05:03:00 AM 66.6920 103.1506 299° West  Level Estimated
Sun 05:04:00 AM 66.7527 102.8682 299° West  Level Estimated
Sun 05:05:00 AM 66.8130 102.5844 298° West  Level Estimated
Sun 05:06:00 AM 66.8728 102.2991 298° West  Level Estimated
Sun 05:07:00 AM 66.9320 102.0125 298° West  Level Estimated
Sun 05:08:00 AM 66.9908 101.7245 298° West  Level Estimated
Sun 05:09:00 AM 67.0490 101.4352 297° West  Level Estimated
Sun 05:10:00 AM 67.1067 101.1440 297° West  Level Estimated
Sun 05:11:00 AM 67.1640 100.8514 297° West  Level Estimated
Sun 05:12:00 AM 67.2207 100.5574 297° West  Level Estimated
Sun 05:13:00 AM 67.2768 100.2620 296° West  Level Estimated
Sun 05:14:00 AM 67.3324 99.9653 296° West  Level Estimated
Sun 05:15:00 AM 67.3875 99.6672 296° West  Level Estimated
Sun 05:16:00 AM 67.4420 99.3677 295° West  Level Estimated
Sun 05:17:00 AM 67.4959 99.0669 295° West  Level Estimated
Sun 05:18:00 AM 67.5493 98.7647 295° West  Level Estimated
Sun 05:19:00 AM 67.6021 98.4611 295° West  Level Estimated
Sun 05:20:00 AM 67.6544 98.1562 294° West  Level Estimated
Sun 05:21:00 AM 67.7061 97.8499 294° West  Level Estimated
Sun 05:22:00 AM 67.7572 97.5423 294° West  Level Estimated
Sun 05:23:00 AM 67.8077 97.2333 294° West  Level Estimated
Sun 05:24:00 AM 67.8576 96.9230 293° West  Level Estimated
Sun 05:25:00 AM 67.9070 96.6114 293° West  Level Estimated
Sun 05:26:00 AM 67.9557 96.2985 293° West  Level Estimated
Sun 05:27:00 AM 68.0039 95.9843 292° West  Level Estimated
Sun 05:28:00 AM 68.0515 95.6687 292° West  Level Estimated
Sun 05:29:00 AM 68.0984 95.3519 292° West  Level Estimated
Sun 05:30:00 AM 68.1448 95.0338 292° West  Level Estimated
Sun 05:31:00 AM 68.1905 94.7144 291° West  Level Estimated
Sun 05:32:00 AM 68.2356 94.3937 291° West  Level Estimated
Sun 05:33:00 AM 68.2801 94.0718 291° West  Level Estimated
Sun 05:34:00 AM 68.3239 93.7491 290° West  Level Estimated
Sun 05:35:00 AM 68.3671 93.4252 290° West  Level Estimated
Sun 05:36:00 AM 68.4096 93.1001 290° West  Level Estimated
Sun 05:37:00 AM 68.4515 92.7737 289° West  Level Estimated
Sun 05:38:00 AM 68.4928 92.4461 289° West  Level Estimated
Sun 05:39:00 AM 68.5334 92.1174 289° West  Level Estimated
Sun 05:40:00 AM 68.5734 91.7875 288° West  Level Estimated
Sun 05:41:00 AM 68.6128 91.4564 288° West  Level Estimated
Sun 05:42:00 AM 68.6515 91.1241 288° West  Level Estimated
Sun 05:43:00 AM 68.6895 90.7907 288° West  Level Estimated
Sun 05:44:00 AM 68.7269 90.4562 287° West  Level Estimated
Sun 05:45:00 AM 68.7636 90.1206 287° West  Level Estimated
Sun 05:46:00 AM 68.7997 89.7839 287° West  Level Estimated
Sun 05:47:00 AM 68.8350 89.4461 286° West  Level Estimated
Sun 05:48:00 AM 68.8697 89.1072 286° West  Level Estimated
Sun 05:49:00 AM 68.9038 88.7672 286° West  Level Estimated
Sun 05:50:00 AM 68.9371 88.4263 285° West  Level Estimated
Sun 05:51:00 AM 68.9698 88.0843 285° West  Level Estimated
Sun 05:52:00 AM 69.0018 87.7413 285° West  Level Estimated
Sun 05:53:00 AM 69.0331 87.3973 284° West  Level Estimated
Sun 05:54:00 AM 69.0637 87.0523 284° West  Level Estimated
Sun 05:55:00 AM 69.0936 86.7064 284° West  Level Estimated
Sun 05:56:00 AM 69.1228 86.3596 283° West  Level Estimated
Sun 05:57:00 AM 69.1513 86.0118 283° West  Level Estimated
Sun 05:58:00 AM 69.1791 85.6632 283° West  Level Estimated
Sun 05:59:00 AM 69.2062 85.3136 282° West  Level Estimated
Sun 06:00:00 AM 69.2326 84.9632 282° West  Level Estimated
Sun 06:01:00 AM 69.2582 84.6120 282° West  Level Estimated
Sun 06:02:00 AM 69.2832 84.2599 281° West  Level Estimated
Sun 06:03:00 AM 69.3074 83.9071 281° West  Level Estimated
Sun 06:04:00 AM 69.3310 83.5534 281° West  Level Estimated
Sun 06:05:00 AM 69.3538 83.1990 281° West  Level Estimated
Sun 06:06:00 AM 69.3758 82.8439 280° West  Level Estimated
Sun 06:07:00 AM 69.3972 82.4880 280° West  Level Estimated
Sun 06:08:00 AM 69.4178 82.1315 280° West  Level Estimated
Sun 06:09:00 AM 69.4377 81.7743 279° West  Level Estimated
Sun 06:10:00 AM 69.4569 81.4164 279° West  Level Estimated
Sun 06:11:00 AM 69.4753 81.0579 279° West  Level Estimated
Sun 06:12:00 AM 69.4930 80.6988 278° West  Level Estimated
Sun 06:13:00 AM 69.5099 80.3391 278° West  Level Estimated
Sun 06:14:00 AM 69.5261 79.9789 277° West  Level Estimated
Sun 06:15:00 AM 69.5416 79.6181 277° West  Level Estimated
Sun 06:16:00 AM 69.5563 79.2568 277° West  Level Estimated
Sun 06:17:00 AM 69.5702 78.8951 276° West  Level Estimated
Sun 06:18:00 AM 69.5835 78.5328 276° West  Level Estimated
Sun 06:19:00 AM 69.5959 78.1702 276° West  Level Estimated
Sun 06:20:00 AM 69.6076 77.8071 275° West  Level Estimated
Sun 06:21:00 AM 69.6186 77.4436 275° West  Level Estimated
Sun 06:22:00 AM 69.6288 77.0798 275° West  Level Estimated
Sun 06:23:00 AM 69.6383 76.7157 274° West  Level Estimated
Sun 06:24:00 AM 69.6470 76.3512 274° West  Level Estimated
Sun 06:25:00 AM 69.6549 75.9864 274° West  Level Estimated
Sun 06:26:00 AM 69.6621 75.6214 273° West  Level Estimated
Sun 06:27:00 AM 69.6685 75.2562 273° West  Level Estimated
Sun 06:28:00 AM 69.6742 74.8913 273° West  Level Estimated
Sun 06:29:00 AM 69.6791 74.5262 272° West  Level Estimated
Sun 06:30:00 AM 69.6832 74.1609 272° West  Level Estimated
Sun 06:31:00 AM 69.6866 73.7955 272° West  Level Estimated
Sun 06:32:00 AM 69.6892 73.4301 271° West  Level Estimated
Sun 06:33:00 AM 69.6911 73.0645 271° West  Level Estimated
Sun 06:34:00 AM 69.6922 72.6989 271° West  Level Estimated
Sun 06:35:00 AM 69.6926 72.3333 270° West  Level Estimated
Sun 06:36:00 AM 69.6922 71.9676 270° West  Level Estimated
Sun 06:37:00 AM 69.6910 71.6020 270° West  Level Estimated
Sun 06:38:00 AM 69.6891 71.2365 269° West  Level Estimated
Sun 06:39:00 AM 69.6864 70.8705 269° West  Level Estimated
Sun 06:40:00 AM 69.6829 70.5045 269° West  Level Estimated
Sun 06:41:00 AM 69.6787 70.1388 268° West  Level Estimated
Sun 06:42:00 AM 69.6737 69.7731 268° West  Level Estimated
Sun 06:43:00 AM 69.6680 69.4077 268° West  Level Estimated
Sun 06:44:00 AM 69.6615 69.0425 267° West  Level Estimated
Sun 06:45:00 AM 69.6543 68.6775 267° West  Level Estimated
Sun 06:46:00 AM 69.6463 68.3128 267° West  Level Estimated
Sun 06:47:00 AM 69.6375 67.9483 266° West  Level Estimated
Sun 06:48:00 AM 69.6280 67.5842 266° West  Level Estimated
Sun 06:49:00 AM 69.6177 67.2204 266° West  Level Estimated
Sun 06:50:00 AM 69.6067 66.8570 265° West  Level Estimated
Sun 06:51:00 AM 69.5949 66.4939 265° West  Level Estimated
Sun 06:52:00 AM 69.5824 66.1313 265° West  Level Estimated
Sun 06:53:00 AM 69.5691 65.7691 264° West  Level Estimated
Sun 06:54:00 AM 69.5550 65.4074 264° West  Level Estimated
Sun 06:55:00 AM 69.5403 65.0461 263° West  Level Estimated
Sun 06:56:00 AM 69.5247 64.6854 263° West  Level Estimated
Sun 06:57:00 AM 69.5085 64.3252 263° West  Level Estimated
Sun 06:58:00 AM 69.4915 63.9656 262° West  Level Estimated
Sun 06:59:00 AM 69.4737 63.6065 262° West  Level Estimated
Sun 07:00:00 AM 69.4553 63.2481 262° West  Level Estimated
Sun 07:01:00 AM 69.4360 62.8903 261° West  Level Estimated
Sun 07:02:00 AM 69.4161 62.5331 261° West  Level Estimated
Sun 07:03:00 AM 69.3954 62.1766 261° West  Level Estimated
Sun 07:04:00 AM 69.3740 61.8209 260° West  Level Estimated
Sun 07:05:00 AM 69.3519 61.4658 260° West  Level Estimated
Sun 07:06:00 AM 69.3290 61.1114 260° West  Level Estimated
Sun 07:07:00 AM 69.3054 60.7579 259° West  Level Estimated
Sun 07:08:00 AM 69.2811 60.4051 259° West  Level Estimated
Sun 07:09:00 AM 69.2561 60.0531 259° West  Level Estimated
Sun 07:10:00 AM 69.2303 59.7019 258° West  Level Estimated
Sun 07:11:00 AM 69.2039 59.3516 258° West  Level Estimated
Sun 07:12:00 AM 69.1767 59.0021 258° West  Level Estimated
Sun 07:13:00 AM 69.1489 58.6535 257° West  Level Estimated
Sun 07:14:00 AM 69.1203 58.3059 257° West  Level Estimated
Sun 07:15:00 AM 69.0910 57.9591 257° West  Level Estimated
Sun 07:16:00 AM 69.0611 57.6133 257° West  Level Estimated
Sun 07:17:00 AM 69.0304 57.2684 256° West  Level Estimated
Sun 07:18:00 AM 68.9990 56.9245 256° West  Level Estimated
Sun 07:19:00 AM 68.9670 56.5816 256° West  Level Estimated
Sun 07:20:00 AM 68.9343 56.2397 255° West  Level Estimated
Sun 07:21:00 AM 68.9009 55.8988 255° West  Level Estimated
Sun 07:22:00 AM 68.8668 55.5590 255° West  Level Estimated
Sun 07:23:00 AM 68.8320 55.2202 254° West  Level Estimated
Sun 07:24:00 AM 68.7966 54.8825 254° West  Level Estimated
Sun 07:25:00 AM 68.7605 54.5458 254° West  Level Estimated
Sun 07:26:00 AM 68.7237 54.2103 253° West  Level Estimated
Sun 07:27:00 AM 68.6863 53.8759 253° West  Level Estimated
Sun 07:28:00 AM 68.6482 53.5426 253° West  Level Estimated
Sun 07:29:00 AM 68.6094 53.2104 252° West  Level Estimated
Sun 07:30:00 AM 68.5701 52.8800 252° West  Level Estimated
Sun 07:31:00 AM 68.5301 52.5506 252° West  Level Estimated
Sun 07:32:00 AM 68.4895 52.2225 251° West  Level Estimated
Sun 07:33:00 AM 68.4482 51.8955 251° West  Level Estimated
Sun 07:34:00 AM 68.4063 51.5697 251° West  Level Estimated
Sun 07:35:00 AM 68.3638 51.2452 251° West  Level Estimated
Sun 07:36:00 AM 68.3206 50.9218 250° West  Level Estimated
Sun 07:37:00 AM 68.2768 50.5997 250° West  Level Estimated
Sun 07:38:00 AM 68.2324 50.2789 250° West  Level Estimated
Sun 07:39:00 AM 68.1874 49.9593 249° West  Level Estimated
Sun 07:40:00 AM 68.1418 49.6409 249° West  Level Estimated
Sun 07:41:00 AM 68.0955 49.3238 249° West  Level Estimated
Sun 07:42:00 AM 68.0487 49.0080 248° West  Level Estimated
Sun 07:43:00 AM 68.0012 48.6935 248° West  Level Estimated
Sun 07:44:00 AM 67.9532 48.3803 248° West  Level Estimated
Sun 07:45:00 AM 67.9045 48.0684 248° West  Level Estimated
Sun 07:46:00 AM 67.8553 47.7578 247° West  Level Estimated
Sun 07:47:00 AM 67.8055 47.4485 247° West  Level Estimated
Sun 07:48:00 AM 67.7551 47.1405 247° West  Level Estimated
Sun 07:49:00 AM 67.7041 46.8339 246° West  Level Estimated
Sun 07:50:00 AM 67.6526 46.5286 246° West  Level Estimated
Sun 07:51:00 AM 67.6004 46.2246 246° West  Level Estimated
Sun 07:52:00 AM 67.5478 45.9220 246° West  Level Estimated
Sun 07:53:00 AM 67.4945 45.6207 245° Southwest  Level Estimated
Sun 07:54:00 AM 67.4407 45.3208 245° Southwest  Level Estimated
Sun 07:55:00 AM 67.3864 45.0223 245° Southwest  Level Estimated
Sun 07:56:00 AM 67.3315 44.7251 244° Southwest  Level Estimated
Sun 07:57:00 AM 67.2760 44.4293 244° Southwest  Level Estimated
Sun 07:58:00 AM 67.2200 44.1348 244° Southwest  Level Estimated
Sun 07:59:00 AM 67.1635 43.8417 244° Southwest  Level Estimated
Sun 07:59:12 AM 67.3770 41.3910 244° Southwest 480 552 34,000  Level FlightAware ADS-B
Sun 07:59:47 AM 67.3350 41.1980 241° Southwest 481 554 34,000  Level FlightAware ADS-B
Sun 08:00:27 AM 67.2990 41.0000 245° Southwest 479 551 34,000  Level FlightAware ADS-B
Sun 08:01:52 AM 67.2290 40.5500 248° West 477 549 34,000  Level FlightAware ADS-B
Sun 08:02:47 AM 67.1820 40.2550 248° West 477 549 34,000  Level FlightAware ADS-B
Sun 08:03:47 AM 67.1370 39.9810 247° West 477 549 34,000  Level FlightAware ADS-B
Sun 08:04:27 AM 67.1080 39.8030 247° West 477 549 34,000  Level FlightAware ADS-B
Sun 08:04:57 AM 67.0860 39.6700 247° West 477 549 34,000  Level FlightAware ADS-B
Sun 08:05:27 AM 67.0640 39.5370 247° West 477 549 34,000  Level FlightAware ADS-B
Sun 08:05:57 AM 67.0420 39.4040 247° West 477 549 34,000  Level FlightAware ADS-B
Sun 08:08:00 AM 66.9017 38.8439 238° Southwest  Level Estimated
Sun 08:09:00 AM 66.8326 38.5731 237° Southwest  Level Estimated
Sun 08:10:00 AM 66.7630 38.3037 237° Southwest  Level Estimated
Sun 08:11:00 AM 66.6930 38.0359 237° Southwest  Level Estimated
Sun 08:12:00 AM 66.6224 37.7692 236° Southwest  Level Estimated
Sun 08:12:07 AM 67.1360 39.9820 236° Southwest 478 550 34,000  Level FlightAware ADS-B
Sun 08:12:47 AM 66.6500 37.2070 247° West 478 550 34,000  Level FlightAware ADS-B
Sun 08:13:32 AM 66.6340 37.1230 244° Southwest 477 549 34,000  Level FlightAware ADS-B
Sun 08:14:12 AM 66.6010 36.9530 244° Southwest 477 549 34,000  Level FlightAware ADS-B
Sun 08:14:52 AM 66.5680 36.7830 244° Southwest 477 549 34,000  Level FlightAware ADS-B
Sun 08:15:42 AM 66.5270 36.5710 244° Southwest 477 549 34,000  Level FlightAware ADS-B
Sun 08:16:22 AM 66.4940 36.4020 244° Southwest 477 549 34,000  Level FlightAware ADS-B
Sun 08:17:02 AM 66.4610 36.2330 244° Southwest 477 549 34,000  Level FlightAware ADS-B
Sun 08:17:42 AM 66.4280 36.0640 244° Southwest 477 549 34,000  Level FlightAware ADS-B
Sun 08:18:22 AM 66.3950 35.8960 244° Southwest 477 549 34,000  Level FlightAware ADS-B
Sun 08:19:12 AM 66.3540 35.6860 244° Southwest 477 549 34,000  Level FlightAware ADS-B
Sun 08:19:52 AM 66.3210 35.5180 244° Southwest 477 549 34,000  Level FlightAware ADS-B
Sun 08:20:32 AM 66.2880 35.3500 244° Southwest 477 549 34,000  Level FlightAware ADS-B
Sun 08:21:12 AM 66.2550 35.1820 244° Southwest 477 549 34,000  Level FlightAware ADS-B
Sun 08:21:52 AM 66.2220 35.0150 244° Southwest 477 549 34,000  Level FlightAware ADS-B
Sun 08:22:42 AM 66.1810 34.8060 244° Southwest 477 549 34,000  Level FlightAware ADS-B
Sun 08:25:00 AM 66.0026 34.2361 233° Southwest  Level Estimated
Sun 08:26:00 AM 65.9243 33.9908 232° Southwest  Level Estimated
Sun 08:27:00 AM 65.8457 33.7470 232° Southwest  Level Estimated
Sun 08:28:00 AM 65.7667 33.5047 232° Southwest  Level Estimated
Sun 08:29:00 AM 65.6873 33.2639 231° Southwest  Level Estimated
Sun 08:30:00 AM 65.6076 33.0246 231° Southwest  Level Estimated
Sun 08:31:00 AM 65.5274 32.7867 231° Southwest  Level Estimated
Sun 08:32:00 AM 65.4469 32.5503 231° Southwest  Level Estimated
Sun 08:33:00 AM 65.3660 32.3153 231° Southwest  Level Estimated
Sun 08:33:22 AM 65.3700 31.3060 231° Southwest 477 549 34,000  Level FlightAware ADS-B
Sun 08:34:07 AM 65.3170 31.0940 239° Southwest 478 550 34,000  Level FlightAware ADS-B
Sun 08:34:47 AM 65.2710 30.9140 239° Southwest 476 548 34,000  Level FlightAware ADS-B
Sun 08:35:32 AM 65.2180 30.7060 239° Southwest 474 545 34,000  Level FlightAware ADS-B
Sun 08:36:12 AM 65.1730 30.5290 239° Southwest 474 545 34,000  Level FlightAware ADS-B
Sun 08:36:52 AM 65.1310 30.3670 238° Southwest 474 545 34,000  Level FlightAware ADS-B
Sun 08:37:32 AM 65.0800 30.1720 238° Southwest 475 547 34,000  Level FlightAware ADS-B
Sun 08:38:17 AM 65.0350 30.0000 238° Southwest 478 550 34,000  Level FlightAware ADS-B
Sun 08:38:57 AM 64.9870 29.8170 238° Southwest 473 544 34,000  Level FlightAware ADS-B
Sun 08:39:42 AM 64.9280 29.6180 235° Southwest 483 556 34,000  Level FlightAware ADS-B
Sun 08:40:22 AM 64.8620 29.4730 223° Southwest 494 568 34,000  Level FlightAware ADS-B
Sun 08:41:07 AM 64.7840 29.3200 220° Southwest 494 568 34,000  Level FlightAware ADS-B
Sun 08:41:47 AM 64.7100 29.1770 220° Southwest 494 568 34,000  Level FlightAware ADS-B
Sun 08:42:27 AM 64.6380 29.0400 219° Southwest 494 568 34,000  Level FlightAware ADS-B
Sun 08:43:07 AM 64.5800 28.9270 220° Southwest 495 570 34,000  Level FlightAware ADS-B
Sun 08:43:52 AM 64.4940 28.7620 220° Southwest 494 568 34,000  Level FlightAware ADS-B
Sun 08:44:37 AM 64.4230 28.6270 219° Southwest 495 570 34,000  Level FlightAware ADS-B
Sun 08:45:12 AM 64.3480 28.4870 219° Southwest 495 570 34,000  Level FlightAware ADS-B
Sun 08:45:57 AM 64.2700 28.3410 219° Southwest 495 570 34,000  Level FlightAware ADS-B
Sun 08:46:42 AM 64.1890 28.1900 219° Southwest 495 570 34,000  Level FlightAware ADS-B
Sun 08:47:22 AM 64.1180 28.0610 218° Southwest 495 570 34,000  Level FlightAware ADS-B
Sun 08:48:07 AM 64.0390 27.9160 219° Southwest 494 568 34,000  Level FlightAware ADS-B
Sun 08:48:47 AM 63.9680 27.7860 219° Southwest 494 568 34,000  Level FlightAware ADS-B
Sun 08:49:27 AM 63.9000 27.6640 218° Southwest 496 571 34,000  Level FlightAware ADS-B
Sun 08:50:02 AM 63.8360 27.5490 218° Southwest 495 570 34,000  Level FlightAware ADS-B
Sun 08:50:52 AM 63.7430 27.3850 218° Southwest 494 568 34,000  Level FlightAware ADS-B
Sun 08:51:37 AM 63.6630 27.2430 218° Southwest 494 568 34,000  Level FlightAware ADS-B
Sun 08:52:17 AM 63.5910 27.1160 218° Southwest 493 567 34,000  Level FlightAware ADS-B
Sun 08:52:57 AM 63.5190 26.9910 218° Southwest 493 567 34,000  Level FlightAware ADS-B
Sun 08:53:42 AM 63.4390 26.8530 218° Southwest 487 560 34,000  Level FlightAware ADS-B
Sun 08:54:22 AM 63.3660 26.7270 218° Southwest 487 560 34,000  Level FlightAware ADS-B
Sun 08:55:02 AM 63.2940 26.6040 218° Southwest 488 562 34,000  Level FlightAware ADS-B
Sun 08:55:47 AM 63.2120 26.4660 217° Southwest 487 560 34,000  Level FlightAware ADS-B
Sun 08:56:27 AM 63.1400 26.3450 217° Southwest 487 560 34,000  Level FlightAware ADS-B
Sun 08:57:07 AM 63.0740 26.2340 217° Southwest 486 559 34,000  Level FlightAware ADS-B
Sun 08:57:47 AM 62.9990 26.1090 217° Southwest 487 560 34,000  Level FlightAware ADS-B
Sun 08:58:37 AM 62.9050 25.9540 217° Southwest 487 560 34,000  Level FlightAware ADS-B
Sun 08:59:17 AM 62.8300 25.8320 217° Southwest 486 559 34,000  Level FlightAware ADS-B
Sun 08:59:57 AM 62.7590 25.7150 217° Southwest 485 558 34,000  Level FlightAware ADS-B
Sun 09:00:42 AM 62.6760 25.5810 217° Southwest 484 557 34,000  Level FlightAware ADS-B
Sun 09:01:22 AM 62.6040 25.4650 217° Southwest 484 557 34,000  Level FlightAware ADS-B
Sun 09:02:02 AM 62.5320 25.3510 216° Southwest 485 558 34,000  Level FlightAware ADS-B
Sun 09:02:47 AM 62.4660 25.2460 216° Southwest 491 565 34,000  Level FlightAware ADS-B
Sun 09:03:22 AM 62.4080 25.1560 216° Southwest 491 565 34,000  Level FlightAware ADS-B
Sun 09:04:12 AM 62.2920 24.9740 216° Southwest 493 567 34,000  Level FlightAware ADS-B
Sun 09:06:00 AM 62.1266 24.6351 224° Southwest  Level Estimated
Sun 09:07:00 AM 62.0343 24.4484 224° Southwest  Level Estimated
Sun 09:07:17 AM 61.9620 24.4650 224° Southwest 494 568 34,000  Level FlightAware ADS-B
Sun 09:09:00 AM 61.8036 24.1466 224° Southwest  Level Estimated
Sun 09:10:00 AM 61.7111 23.9626 223° Southwest  Level Estimated
Sun 09:10:32 AM 61.6050 23.9320 223° Southwest 479 551 36,000  Level FlightAware ADS-B
Sun 09:11:12 AM 61.5360 23.8310 215° Southwest 485 558 36,000  Level FlightAware ADS-B
Sun 09:11:57 AM 61.4360 23.6850 215° Southwest 476 548 36,000  Level FlightAware ADS-B
Sun 09:12:37 AM 61.3600 23.5750 215° Southwest 475 547 36,000  Level FlightAware ADS-B
Sun 09:13:17 AM 61.2880 23.4710 215° Southwest 474 545 36,000  Level FlightAware ADS-B
Sun 09:14:02 AM 61.2060 23.3540 215° Southwest 474 545 36,000  Level FlightAware ADS-B
Sun 09:14:42 AM 61.1340 23.2510 215° Southwest 475 547 36,000  Level FlightAware ADS-B
Sun 09:15:22 AM 61.0590 23.1450 214° Southwest 475 547 36,000  Level FlightAware ADS-B
Sun 09:16:07 AM 60.9770 23.0300 214° Southwest 474 545 36,000  Level FlightAware ADS-B
Sun 09:16:47 AM 60.9060 22.9300 214° Southwest 482 555 36,000  Level FlightAware ADS-B
Sun 09:17:32 AM 60.8230 22.8150 214° Southwest 482 555 36,000  Level FlightAware ADS-B
Sun 09:18:12 AM 60.7460 22.7090 214° Southwest 483 556 36,000  Level FlightAware ADS-B
Sun 09:18:57 AM 60.6630 22.5950 214° Southwest 485 558 36,000  Level FlightAware ADS-B
Sun 09:19:37 AM 60.5890 22.4930 214° Southwest 486 559 36,000  Level FlightAware ADS-B
Sun 09:20:17 AM 60.5140 22.3920 214° Southwest 487 560 36,000  Level FlightAware ADS-B
Sun 09:21:02 AM 60.4390 22.2910 214° Southwest 487 560 36,000  Level FlightAware ADS-B
Sun 09:21:42 AM 60.3580 22.1810 214° Southwest 487 560 36,000  Level FlightAware ADS-B
Sun 09:22:27 AM 60.2710 22.0670 213° Southwest 485 558 36,000  Level FlightAware ADS-B
Sun 09:23:07 AM 60.1970 21.9680 214° Southwest 485 558 36,000  Level FlightAware ADS-B
Sun 09:23:42 AM 60.1350 21.8860 213° Southwest 486 559 36,000  Level FlightAware ADS-B
Sun 09:24:32 AM 60.0400 21.7610 213° Southwest 483 556 36,000  Level FlightAware ADS-B
Sun 09:25:12 AM 59.9650 21.6640 213° Southwest 482 555 36,000  Level FlightAware ADS-B
Sun 09:25:57 AM 59.8880 21.5640 213° Southwest 481 554 36,000  Level FlightAware ADS-B
Sun 09:26:37 AM 59.8050 21.4570 213° Southwest 481 554 36,000  Level FlightAware ADS-B
Sun 09:27:17 AM 59.7320 21.3640 213° Southwest 482 555 36,000  Level FlightAware ADS-B
Sun 09:27:57 AM 59.6550 21.2660 213° Southwest 483 556 36,000  Level FlightAware ADS-B
Sun 09:28:42 AM 59.5750 21.1650 213° Southwest 482 555 36,000  Level FlightAware ADS-B
Sun 09:29:27 AM 59.4880 21.0540 213° Southwest 481 554 36,000  Level FlightAware ADS-B
Sun 09:30:07 AM 59.4160 20.9650 212° Southwest 480 552 36,000  Level FlightAware ADS-B
Sun 09:30:47 AM 59.3430 20.8740 212° Southwest 480 552 36,000  Level FlightAware ADS-B
Sun 09:31:27 AM 59.2670 20.7710 215° Southwest 472 543 36,000  Level FlightAware ADS-B
Sun 09:33:07 AM 59.0950 20.5350 215° Southwest 474 545 36,000  Level FlightAware ADS-B
Sun 09:33:47 AM 59.0160 20.4260 215° Southwest 474 545 36,000  Level FlightAware ADS-B
Sun 09:34:32 AM 58.9360 20.3160 215° Southwest 473 544 36,000  Level FlightAware ADS-B
Sun 09:36:27 AM 58.7390 20.0490 215° Southwest 471 542 36,000  Level FlightAware ADS-B
Sun 09:37:07 AM 58.6670 19.9530 215° Southwest 471 542 36,000  Level FlightAware ADS-B
Sun 09:37:52 AM 58.5870 19.8510 214° Southwest 466 536 36,000  Level FlightAware ADS-B
Sun 09:38:32 AM 58.5120 19.7560 214° Southwest 464 534 36,000  Level FlightAware ADS-B
Sun 09:39:12 AM 58.4390 19.6650 213° Southwest 464 534 36,000  Level FlightAware ADS-B
Sun 09:39:57 AM 58.3590 19.5630 214° Southwest 464 534 36,000  Level FlightAware ADS-B
Sun 09:40:37 AM 58.2900 19.4760 214° Southwest 464 534 36,000  Level FlightAware ADS-B
Sun 09:41:17 AM 58.2050 19.3720 213° Southwest 470 541 36,000 565 Level FlightAware ADS-B
Sun 09:42:02 AM 58.1260 19.2720 214° Southwest 470 541 36,800 706 Climbing FlightAware ADS-B
Sun 09:42:42 AM 58.0530 19.1830 213° Southwest 469 540 37,000 141 Climbing FlightAware ADS-B
Sun 09:43:27 AM 57.9700 19.0810 213° Southwest 466 536 37,000  Level FlightAware ADS-B
Sun 09:44:07 AM 57.8970 18.9920 213° Southwest 464 534 37,000  Level FlightAware ADS-B
Sun 09:44:52 AM 57.8180 18.8960 213° Southwest 463 533 37,000  Level FlightAware ADS-B
Sun 09:45:32 AM 57.7470 18.8110 213° Southwest 462 532 37,000  Level FlightAware ADS-B
Sun 09:46:12 AM 57.6750 18.7240 213° Southwest 463 533 37,000  Level FlightAware ADS-B
Sun 09:46:57 AM 57.5910 18.6240 213° Southwest 463 533 37,000  Level FlightAware ADS-B
Sun 09:47:37 AM 57.5190 18.5380 213° Southwest 462 532 37,000  Level FlightAware ADS-B
Sun 09:48:17 AM 57.4480 18.4540 212° Southwest 462 532 37,000  Level FlightAware ADS-B
Sun 09:48:57 AM 57.3800 18.3740 212° Southwest 461 531 37,000  Level FlightAware ADS-B
Sun 09:49:42 AM 57.2950 18.2750 212° Southwest 461 531 37,000  Level FlightAware ADS-B
Sun 09:50:27 AM 57.2170 18.1840 212° Southwest 461 531 37,000  Level FlightAware ADS-B
Sun 09:51:07 AM 57.1440 18.0990 212° Southwest 461 531 37,000  Level FlightAware ADS-B
Sun 09:51:52 AM 57.0620 18.0050 212° Southwest 461 531 37,000  Level FlightAware ADS-B
Sun 09:52:32 AM 56.9920 17.9240 212° Southwest 460 529 37,000  Level FlightAware ADS-B
Sun 09:53:12 AM 56.9210 17.8430 212° Southwest 460 529 37,000  Level FlightAware ADS-B
Sun 09:53:57 AM 56.8400 17.7510 212° Southwest 460 529 37,000  Level FlightAware ADS-B
Sun 09:54:37 AM 56.7680 17.6690 212° Southwest 461 531 37,000  Level FlightAware ADS-B
Sun 09:55:12 AM 56.7040 17.5970 212° Southwest 461 531 37,000  Level FlightAware ADS-B
Sun 09:55:52 AM 56.6310 17.5150 212° Southwest 460 529 37,000  Level FlightAware ADS-B
Sun 09:56:37 AM 56.5520 17.4270 212° Southwest 460 529 37,000  Level FlightAware ADS-B
Sun 09:57:17 AM 56.4820 17.3490 212° Southwest 458 527 37,000  Level FlightAware ADS-B
Sun 09:58:02 AM 56.3960 17.2540 211° Southwest 458 527 37,000  Level FlightAware ADS-B
Sun 09:58:42 AM 56.3240 17.1750 211° Southwest 456 525 37,000  Level FlightAware ADS-B
Sun 09:59:22 AM 56.2520 17.0960 211° Southwest 456 525 37,000  Level FlightAware ADS-B
Sun 10:00:07 AM 56.1740 17.0110 211° Southwest 457 526 37,000  Level FlightAware ADS-B
Sun 10:00:37 AM 56.1220 16.9540 211° Southwest 455 524 37,000  Level FlightAware ADS-B
Sun 10:01:27 AM 56.0260 16.8500 211° Southwest 455 524 37,000  Level FlightAware ADS-B
Sun 10:02:12 AM 55.9430 16.7610 211° Southwest 455 524 37,000  Level FlightAware ADS-B
Sun 10:02:52 AM 55.8740 16.6870 211° Southwest 455 524 37,000  Level FlightAware ADS-B
Sun 10:03:37 AM 55.7930 16.6000 211° Southwest 456 525 37,000  Level FlightAware ADS-B
Sun 10:04:17 AM 55.7210 16.5240 211° Southwest 455 524 37,000  Level FlightAware ADS-B
Sun 10:04:57 AM 55.6520 16.4510 211° Southwest 456 525 37,000  Level FlightAware ADS-B
Sun 10:05:42 AM 55.5720 16.3670 211° Southwest 455 524 37,000  Level FlightAware ADS-B
Sun 10:06:17 AM 55.5050 16.2970 211° Southwest 454 522 37,000  Level FlightAware ADS-B
Sun 10:07:07 AM 55.4140 16.2020 211° Southwest 453 521 37,000  Level FlightAware ADS-B
Sun 10:07:47 AM 55.3460 16.1310 211° Southwest 451 519 37,000  Level FlightAware ADS-B
Sun 10:08:32 AM 55.2600 16.0420 211° Southwest 451 519 37,000  Level FlightAware ADS-B
Sun 10:09:12 AM 55.1880 15.9680 210° Southwest 451 519 37,000  Level FlightAware ADS-B
Sun 10:09:57 AM 55.1130 15.8920 210° Southwest 451 519 37,000  Level FlightAware ADS-B
Sun 10:10:37 AM 55.0390 15.8170 210° Southwest 452 520 37,000  Level FlightAware ADS-B
Sun 10:11:17 AM 54.9650 15.7410 211° Southwest 451 519 37,000  Level FlightAware ADS-B
Sun 10:12:02 AM 54.8820 15.6580 210° Southwest 451 519 37,000  Level FlightAware ADS-B
Sun 10:12:42 AM 54.8100 15.5850 210° Southwest 452 520 37,000  Level FlightAware ADS-B
Sun 10:13:27 AM 54.7300 15.5050 210° Southwest 452 520 37,000  Level FlightAware ADS-B
Sun 10:14:07 AM 54.6610 15.4360 210° Southwest 453 521 37,000  Level FlightAware ADS-B
Sun 10:14:47 AM 54.5880 15.3640 210° Southwest 454 522 37,000  Level FlightAware ADS-B
Sun 10:15:32 AM 54.5070 15.2840 210° Southwest 449 517 37,000  Level FlightAware ADS-B
Sun 10:16:12 AM 54.4310 15.2100 210° Southwest 449 517 37,000  Level FlightAware ADS-B
Sun 10:16:52 AM 54.3590 15.1380 210° Southwest 449 517 37,000  Level FlightAware ADS-B
Sun 10:17:47 AM 54.2630 15.0450 210° Southwest 448 516 37,000  Level FlightAware ADS-B
Sun 10:18:22 AM 54.1990 14.9830 210° Southwest 446 513 37,000  Level FlightAware ADS-B
Sun 10:19:12 AM 54.1100 14.8970 210° Southwest 445 512 37,000  Level FlightAware ADS-B
Sun 10:19:57 AM 54.0260 14.8160 210° Southwest 443 510 37,000  Level FlightAware ADS-B
Sun 10:20:32 AM 53.9620 14.7550 209° Southwest 446 513 37,000  Level FlightAware ADS-B
Sun 10:21:22 AM 53.8710 14.6680 209° Southwest 446 513 37,000  Level FlightAware ADS-B
Sun 10:22:02 AM 53.7960 14.5970 209° Southwest 445 512 37,000  Level FlightAware ADS-B
Sun 10:22:42 AM 53.7300 14.5340 209° Southwest 443 510 37,000  Level FlightAware ADS-B
Sun 10:23:22 AM 53.6570 14.4660 209° Southwest 444 511 37,000  Level FlightAware ADS-B
Sun 10:23:57 AM 53.5980 14.4100 209° Southwest 444 511 37,000  Level FlightAware ADS-B
Sun 10:24:47 AM 53.5010 14.3230 208° Southwest 437 503 37,000  Level FlightAware ADS-B
Sun 10:25:47 AM 53.3980 14.2310 208° Southwest 438 504 37,000  Level FlightAware ADS-B
Sun 10:26:27 AM 53.3240 14.1630 209° Southwest 439 505 37,000  Level FlightAware ADS-B
Sun 10:27:07 AM 53.2520 14.1000 208° Southwest 439 505 37,000  Level FlightAware ADS-B
Sun 10:27:52 AM 53.1670 14.0240 208° Southwest 439 505 37,000  Level FlightAware ADS-B
Sun 10:28:32 AM 53.0970 13.9610 208° Southwest 440 506 37,000  Level FlightAware ADS-B
Sun 10:29:12 AM 53.0190 13.8930 208° Southwest 440 506 37,000  Level FlightAware ADS-B
Sun 10:29:57 AM 52.9370 13.8200 208° Southwest 440 506 37,000  Level FlightAware ADS-B
Sun 10:30:32 AM 52.8800 13.7710 207° Southwest 440 506 37,000  Level FlightAware ADS-B
Sun 10:31:22 AM 52.7850 13.6880 208° Southwest 442 509 37,000  Level FlightAware ADS-B
Sun 10:32:02 AM 52.7080 13.6210 208° Southwest 442 509 37,000  Level FlightAware ADS-B
Sun 10:32:47 AM 52.6340 13.5570 208° Southwest 442 509 37,000  Level FlightAware ADS-B
Sun 10:33:27 AM 52.5600 13.4930 208° Southwest 442 509 37,000  Level FlightAware ADS-B
Sun 10:34:07 AM 52.4850 13.4290 207° Southwest 442 509 37,000  Level FlightAware ADS-B
Sun 10:34:47 AM 52.4110 13.3660 207° Southwest 442 509 37,000  Level FlightAware ADS-B
Sun 10:35:32 AM 52.3220 13.2900 208° Southwest 449 517 37,000  Level FlightAware ADS-B
Sun 10:36:17 AM 52.2360 13.2170 207° Southwest 450 518 37,000  Level FlightAware ADS-B
Sun 10:36:57 AM 52.1620 13.1540 208° Southwest 450 518 37,000  Level FlightAware ADS-B
Sun 10:37:42 AM 52.0830 13.0880 207° Southwest 449 517 37,000  Level FlightAware ADS-B
Sun 10:38:22 AM 52.0080 13.0250 207° Southwest 449 517 37,000  Level FlightAware ADS-B
Sun 10:39:07 AM 51.9240 12.9540 208° Southwest 449 517 37,000  Level FlightAware ADS-B
Sun 10:39:47 AM 51.8500 12.8930 207° Southwest 449 517 37,000  Level FlightAware ADS-B
Sun 10:40:27 AM 51.7750 12.8310 207° Southwest 449 517 37,000  Level FlightAware ADS-B
Sun 10:41:07 AM 51.7000 12.7690 207° Southwest 450 518 37,000  Level FlightAware ADS-B
Sun 10:41:52 AM 51.6230 12.7060 207° Southwest 451 519 37,000  Level FlightAware ADS-B
Sun 10:42:32 AM 51.5520 12.6470 207° Southwest 451 519 37,000  Level FlightAware ADS-B
Sun 10:43:17 AM 51.4650 12.5760 207° Southwest 442 509 37,000  Level FlightAware ADS-B
Sun 10:43:57 AM 51.4090 12.4880 224° Southwest 442 509 37,000 -450 Level FlightAware ADS-B
Sun 10:44:37 AM 51.3660 12.3740 239° Southwest 440 506 36,400 -1,129 Descending FlightAware ADS-B
Sun 10:45:22 AM 51.3200 12.2440 241° Southwest 448 516 35,400 -1,271 Descending FlightAware ADS-B
Sun 10:46:02 AM 51.2780 12.1300 240° Southwest 455 524 34,600 -988 Descending FlightAware ADS-B
Sun 10:46:47 AM 51.2300 12.0000 240° Southwest 452 520 34,000 -706 Descending FlightAware ADS-B
Sun 10:47:27 AM 51.1900 11.8840 241° Southwest 454 522 33,600 -975 Descending FlightAware ADS-B
Sun 10:48:07 AM 51.1520 11.7660 243° Southwest 453 521 32,700 -1,765 Descending FlightAware ADS-B
Sun 10:48:52 AM 51.1080 11.6300 243° Southwest 457 526 31,100 -2,188 Descending FlightAware ADS-B
Sun 10:49:32 AM 51.0690 11.5110 242° Southwest 461 531 29,600 -2,259 Descending FlightAware ADS-B
Sun 10:50:17 AM 51.0250 11.3780 242° Southwest 449 517 27,900 -2,188 Descending FlightAware ADS-B
Sun 10:50:57 AM 50.9850 11.2590 242° Southwest 432 497 26,500 -2,100 Descending FlightAware ADS-B
Sun 10:51:37 AM 50.9500 11.1540 242° Southwest 423 487 25,100 -2,182 Descending FlightAware ADS-B
Sun 10:52:47 AM 50.8870 10.9620 243° Southwest 412 474 22,500 -1,617 Descending FlightAware ADS-B
Sun 10:53:32 AM 50.8470 10.8470 241° Southwest 406 467 22,000 -300 Descending FlightAware ADS-B
Sun 10:54:27 AM 50.7980 10.7010 242° Southwest 407 468 22,000 -288 Level FlightAware ADS-B
Sun 10:55:37 AM 50.7510 10.5300 247° West 406 467 21,400 -1,335 Descending FlightAware ADS-B
Sun 10:58:00 AM 50.6032 10.1120 241° Southwest  Level Estimated
Sun 10:59:00 AM 50.5407 9.9374 241° Southwest  Level Estimated
Sun 10:59:37 AM 50.5630 9.8810 241° Southwest 382 440 15,100  Level FlightAware ADS-B
Sun 11:00:17 AM 50.5340 9.7810 246° West 378 435 13,700 -2,047 Descending FlightAware ADS-B
Sun 11:01:02 AM 50.5010 9.6710 245° Southwest 366 421 12,200 -1,920 Descending FlightAware ADS-B
Sun 11:01:32 AM 50.4810 9.5990 246° West 363 418 11,300 -1,029 Descending FlightAware ADS-B
Sun 11:02:12 AM 50.4590 9.5000 251° West 344 396 11,000 -133 Descending FlightAware ADS-B
Sun 11:03:47 AM 50.4230 9.3070 254° West 256 295 11,000  Level FlightAware ADS-B
Sun 11:04:57 AM 50.3970 9.1850 252° West 253 291 11,000  Level FlightAware ADS-B
Sun 11:05:32 AM 50.3830 9.1250 250° West 256 295 11,000 -71 Level FlightAware ADS-B
Sun 11:06:22 AM 50.3620 9.0360 250° West 255 293 10,900 -316 Descending FlightAware ADS-B
Sun 11:07:07 AM 50.3440 8.9560 251° West 256 295 10,500 -771 Descending FlightAware ADS-B
Sun 11:07:32 AM 50.3290 8.9200 237° Southwest 256 295 10,000 -1,000 Descending FlightAware ADS-B
Sun 11:08:37 AM 50.2750 8.9690 150° Southeast 260 299 9,000 -814 Descending FlightAware ADS-B
Sun 11:09:52 AM 50.2890 9.1050 81° East 256 295 8,100 -750 Descending FlightAware ADS-B
Sun 11:09:57 AM 50.2910 9.1140 71° East 255 293 8,000 -533 Descending FlightAware ADS-B
Sun 11:10:37 AM 50.3090 9.1830 68° East 251 289 7,700 -480 Descending FlightAware ADS-B
Sun 11:11:12 AM 50.3230 9.2400 69° East 250 288 7,400 -411 Descending FlightAware ADS-B
Sun 11:13:00 AM 50.1967 8.9410 237° Southwest  Level Estimated
Sun 11:14:00 AM 50.1262 8.7756 236° Southwest  Level Estimated
Sun 11:15:00 AM 50.0555 8.6106 236° Southwest  Level Estimated
Sun 11:16:00 AM 50.0264 8.5431 236° Southwest  Level Estimated
Sun 11:16:42 AM 50.1570 9.0810 236° Southwest 244 281 5,200  Level FlightAware ADS-B
Sun 11:17:27 AM 50.1400 9.0090 250° West 235 270 4,500 -943 Descending FlightAware ADS-B
Sun 11:17:52 AM 50.1300 8.9690 249° West 231 266 4,100 -554 Descending FlightAware ADS-B
Sun 11:18:32 AM 50.1160 8.9050 251° West 232 267 3,900 -171 Descending FlightAware ADS-B
Sun 11:19:02 AM 50.1050 8.8590 250° West 219 252 3,900 -360 Level FlightAware ADS-B
Sun 11:19:22 AM 50.0980 8.8290 250° West 213 245 3,600 -982 Descending FlightAware ADS-B
Sun 11:19:57 AM 50.0870 8.7840 249° West 178 205 3,000 -1,080 Descending FlightAware ADS-B
Sun 11:20:12 AM 50.0820 8.7650 248° West 174 200 2,700 -1,050 Descending FlightAware ADS-B
Sun 11:20:37 AM 50.0750 8.7350 250° West 165 190 2,300 -900 Descending FlightAware ADS-B
Sun 11:21:12 AM 50.0670 8.6990 251° West 151 174 1,800 -800 Descending FlightAware ADS-B
Sun 11:21:37 AM 50.0610 8.6740 250° West 147 169 1,500 -771 Descending FlightAware ADS-B
Sun 11:22:22 AM 50.0500 8.6300 249° West 144 166 900 -800 Descending FlightAware ADS-B
Sun 11:22:37 AM 50.0470 8.6180 249° West 144 166 700 9,323 Descending FlightAware ADS-B
Sun 11:23:27 AM 50.3820 9.1220 44° Northeast 259 298 11,000 6,316 Climbing FlightAware ADS-B
Sun 11:24:12 AM 50.3550 9.0050 250° West 257 296 10,700 -776 Descending FlightAware ADS-B
Sun 11:24:52 AM 50.3190 8.9130 239° Southwest 252 290 9,900 -1,309 Descending FlightAware ADS-B
Sun 11:25:07 AM 50.2960 8.9150 177° South 251 289 9,500 -1,400 Descending FlightAware ADS-B
Sun 11:25:22 AM 50.2790 8.9380 139° Southeast 255 293 9,200 -1,200 Descending FlightAware ADS-B
Sun 11:25:32 AM 50.2750 8.9720 100° East 260 299 9,000 -1,400 Descending FlightAware ADS-B
Sun 11:25:52 AM 50.2770 9.0220 86° East 256 295 8,500 -1,067 Descending FlightAware ADS-B
Sun 11:26:17 AM 50.2840 9.0890 81° East 258 297 8,200 -764 Descending FlightAware ADS-B
Sun 11:26:47 AM 50.3040 9.1640 67° East 253 291 7,800 -764 Descending FlightAware ADS-B
Sun 11:27:12 AM 50.3190 9.2220 68° East 253 291 7,500 -327 Descending FlightAware ADS-B
Sun 11:27:42 AM 50.3320 9.2750 69° East 253 291 7,500 -462 Level FlightAware ADS-B
Sun 11:28:17 AM 50.3520 9.3730 72° East 254 292 7,000 -432 Descending FlightAware ADS-B
Sun 11:29:27 AM 50.2200 9.2800 204° Southwest 6,800 -267 Descending FlightAware ADS-B
Sun 11:29:47 AM 50.2030 9.2560 222° Southwest 236 272 6,600 -686 Descending FlightAware ADS-B
Sun 11:30:02 AM 50.1870 9.2160 238° Southwest 238 274 6,400 -800 Descending FlightAware ADS-B
Sun 11:30:32 AM 50.1710 9.1410 252° West 241 277 6,000 -1,309 Descending FlightAware ADS-B
Sun 11:30:57 AM 50.1560 9.0790 249° West 245 282 5,200 -1,920 Descending FlightAware ADS-B

Login

Don't have an account? Register now (free) for customized features, flight alerts, and more!